sensor_id;sensor_type;location;lat;lon;timestamp;P1;durP1;ratioP1;P2;durP2;ratioP2
65597;SDS011;52267;51.984;20.956;2022-08-25T00:01:57;13.00;;;4.40;;
65597;SDS011;52267;51.984;20.956;2022-08-25T00:04:25;12.60;;;4.10;;
65597;SDS011;52267;51.984;20.956;2022-08-25T00:06:54;10.70;;;4.10;;
65597;SDS011;52267;51.984;20.956;2022-08-25T00:09:24;9.70;;;4.00;;
65597;SDS011;52267;51.984;20.956;2022-08-25T00:14:25;8.40;;;4.00;;
65597;SDS011;52267;51.984;20.956;2022-08-25T00:16:57;11.60;;;4.40;;
65597;SDS011;52267;51.984;20.956;2022-08-25T00:19:26;11.70;;;4.00;;
65597;SDS011;52267;51.984;20.956;2022-08-25T00:21:55;14.00;;;4.30;;
65597;SDS011;52267;51.984;20.956;2022-08-25T00:24:22;7.40;;;3.50;;
65597;SDS011;52267;51.984;20.956;2022-08-25T00:26:52;11.50;;;4.40;;
65597;SDS011;52267;51.984;20.956;2022-08-25T00:29:22;9.00;;;3.70;;
65597;SDS011;52267;51.984;20.956;2022-08-25T00:31:52;12.70;;;3.70;;
65597;SDS011;52267;51.984;20.956;2022-08-25T00:34:29;9.70;;;3.70;;
65597;SDS011;52267;51.984;20.956;2022-08-25T00:37:00;8.50;;;3.50;;
65597;SDS011;52267;51.984;20.956;2022-08-25T00:39:27;9.50;;;3.60;;
65597;SDS011;52267;51.984;20.956;2022-08-25T00:41:55;12.30;;;4.10;;
65597;SDS011;52267;51.984;20.956;2022-08-25T00:44:25;9.90;;;3.80;;
65597;SDS011;52267;51.984;20.956;2022-08-25T00:49:38;8.80;;;3.60;;
65597;SDS011;52267;51.984;20.956;2022-08-25T00:57:37;9.00;;;3.30;;
65597;SDS011;52267;51.984;20.956;2022-08-25T01:00:12;10.50;;;3.50;;
65597;SDS011;52267;51.984;20.956;2022-08-25T01:02:42;12.10;;;3.70;;
65597;SDS011;52267;51.984;20.956;2022-08-25T01:05:09;8.00;;;3.60;;
65597;SDS011;52267;51.984;20.956;2022-08-25T01:07:36;11.90;;;3.80;;
65597;SDS011;52267;51.984;20.956;2022-08-25T01:10:05;10.70;;;3.70;;
65597;SDS011;52267;51.984;20.956;2022-08-25T01:12:34;7.00;;;3.70;;
65597;SDS011;52267;51.984;20.956;2022-08-25T01:15:03;10.80;;;3.30;;
65597;SDS011;52267;51.984;20.956;2022-08-25T01:17:54;7.20;;;4.10;;
65597;SDS011;52267;51.984;20.956;2022-08-25T01:20:23;10.50;;;4.10;;
65597;SDS011;52267;51.984;20.956;2022-08-25T01:22:52;9.60;;;4.00;;
65597;SDS011;52267;51.984;20.956;2022-08-25T01:28:09;8.90;;;4.30;;
65597;SDS011;52267;51.984;20.956;2022-08-25T01:30:37;10.90;;;4.70;;
65597;SDS011;52267;51.984;20.956;2022-08-25T01:33:05;9.60;;;4.30;;
65597;SDS011;52267;51.984;20.956;2022-08-25T01:35:34;13.00;;;4.20;;
65597;SDS011;52267;51.984;20.956;2022-08-25T01:38:03;10.70;;;4.30;;
65597;SDS011;52267;51.984;20.956;2022-08-25T01:40:33;11.10;;;4.30;;
65597;SDS011;52267;51.984;20.956;2022-08-25T01:43:06;8.80;;;3.80;;
65597;SDS011;52267;51.984;20.956;2022-08-25T01:45:41;6.80;;;4.20;;
65597;SDS011;52267;51.984;20.956;2022-08-25T01:48:13;9.10;;;4.10;;
65597;SDS011;52267;51.984;20.956;2022-08-25T01:50:41;11.30;;;4.40;;
65597;SDS011;52267;51.984;20.956;2022-08-25T01:53:23;11.30;;;4.40;;
65597;SDS011;52267;51.984;20.956;2022-08-25T01:55:54;12.20;;;4.90;;
65597;SDS011;52267;51.984;20.956;2022-08-25T01:58:29;13.80;;;4.90;;
65597;SDS011;52267;51.984;20.956;2022-08-25T02:01:00;7.80;;;4.30;;
65597;SDS011;52267;51.984;20.956;2022-08-25T02:03:30;10.20;;;4.70;;
65597;SDS011;52267;51.984;20.956;2022-08-25T02:05:58;13.10;;;4.50;;
65597;SDS011;52267;51.984;20.956;2022-08-25T02:08:25;13.40;;;5.00;;
65597;SDS011;52267;51.984;20.956;2022-08-25T02:10:52;10.50;;;4.20;;
65597;SDS011;52267;51.984;20.956;2022-08-25T02:13:21;11.00;;;4.80;;
65597;SDS011;52267;51.984;20.956;2022-08-25T02:15:51;9.50;;;5.00;;
65597;SDS011;52267;51.984;20.956;2022-08-25T02:18:19;11.30;;;5.20;;
65597;SDS011;52267;51.984;20.956;2022-08-25T02:20:47;12.70;;;4.40;;
65597;SDS011;52267;51.984;20.956;2022-08-25T02:23:14;11.00;;;5.00;;
65597;SDS011;52267;51.984;20.956;2022-08-25T02:25:42;10.10;;;4.90;;
65597;SDS011;52267;51.984;20.956;2022-08-25T02:28:09;10.90;;;4.50;;
65597;SDS011;52267;51.984;20.956;2022-08-25T02:30:40;10.60;;;4.50;;
65597;SDS011;52267;51.984;20.956;2022-08-25T02:33:08;7.20;;;4.50;;
65597;SDS011;52267;51.984;20.956;2022-08-25T02:35:36;9.80;;;4.60;;
65597;SDS011;52267;51.984;20.956;2022-08-25T02:38:04;11.40;;;4.70;;
65597;SDS011;52267;51.984;20.956;2022-08-25T02:40:31;11.90;;;5.20;;
65597;SDS011;52267;51.984;20.956;2022-08-25T02:42:58;7.50;;;4.40;;
65597;SDS011;52267;51.984;20.956;2022-08-25T02:45:25;8.90;;;4.20;;
65597;SDS011;52267;51.984;20.956;2022-08-25T02:47:52;10.00;;;4.50;;
65597;SDS011;52267;51.984;20.956;2022-08-25T02:50:19;13.90;;;5.20;;
65597;SDS011;52267;51.984;20.956;2022-08-25T02:52:46;10.80;;;5.10;;
65597;SDS011;52267;51.984;20.956;2022-08-25T02:55:16;12.00;;;4.90;;
65597;SDS011;52267;51.984;20.956;2022-08-25T02:57:44;11.00;;;5.20;;
65597;SDS011;52267;51.984;20.956;2022-08-25T03:00:13;13.50;;;4.50;;
65597;SDS011;52267;51.984;20.956;2022-08-25T03:02:41;9.10;;;4.80;;
65597;SDS011;52267;51.984;20.956;2022-08-25T03:05:10;10.60;;;4.60;;
65597;SDS011;52267;51.984;20.956;2022-08-25T03:07:38;10.30;;;5.10;;
65597;SDS011;52267;51.984;20.956;2022-08-25T03:10:08;11.10;;;5.00;;
65597;SDS011;52267;51.984;20.956;2022-08-25T03:12:38;10.10;;;4.40;;
65597;SDS011;52267;51.984;20.956;2022-08-25T03:15:11;10.50;;;4.40;;
65597;SDS011;52267;51.984;20.956;2022-08-25T03:17:44;9.00;;;4.70;;
65597;SDS011;52267;51.984;20.956;2022-08-25T03:20:11;8.20;;;4.50;;
65597;SDS011;52267;51.984;20.956;2022-08-25T03:22:38;8.50;;;4.40;;
65597;SDS011;52267;51.984;20.956;2022-08-25T03:25:06;9.80;;;4.50;;
65597;SDS011;52267;51.984;20.956;2022-08-25T03:27:53;6.70;;;4.50;;
65597;SDS011;52267;51.984;20.956;2022-08-25T03:30:20;8.30;;;4.70;;
65597;SDS011;52267;51.984;20.956;2022-08-25T03:32:47;9.80;;;5.00;;
65597;SDS011;52267;51.984;20.956;2022-08-25T03:35:14;7.30;;;4.20;;
65597;SDS011;52267;51.984;20.956;2022-08-25T03:37:41;9.90;;;4.40;;
65597;SDS011;52267;51.984;20.956;2022-08-25T03:40:10;8.90;;;4.80;;
65597;SDS011;52267;51.984;20.956;2022-08-25T03:42:43;12.70;;;5.30;;
65597;SDS011;52267;51.984;20.956;2022-08-25T03:45:12;7.40;;;4.50;;
65597;SDS011;52267;51.984;20.956;2022-08-25T03:47:44;8.90;;;4.80;;
65597;SDS011;52267;51.984;20.956;2022-08-25T03:50:12;11.80;;;4.50;;
65597;SDS011;52267;51.984;20.956;2022-08-25T03:52:39;11.50;;;5.50;;
65597;SDS011;52267;51.984;20.956;2022-08-25T03:55:09;10.70;;;6.10;;
65597;SDS011;52267;51.984;20.956;2022-08-25T03:57:37;9.10;;;4.90;;
65597;SDS011;52267;51.984;20.956;2022-08-25T04:00:08;9.70;;;5.80;;
65597;SDS011;52267;51.984;20.956;2022-08-25T04:02:38;13.80;;;5.90;;
65597;SDS011;52267;51.984;20.956;2022-08-25T04:05:05;9.60;;;5.40;;
65597;SDS011;52267;51.984;20.956;2022-08-25T04:07:33;9.80;;;5.10;;
65597;SDS011;52267;51.984;20.956;2022-08-25T04:10:00;18.20;;;7.50;;
65597;SDS011;52267;51.984;20.956;2022-08-25T04:12:27;17.50;;;6.50;;
65597;SDS011;52267;51.984;20.956;2022-08-25T04:14:54;12.30;;;6.30;;
65597;SDS011;52267;51.984;20.956;2022-08-25T04:17:21;12.40;;;6.20;;
65597;SDS011;52267;51.984;20.956;2022-08-25T04:19:48;12.10;;;6.80;;
65597;SDS011;52267;51.984;20.956;2022-08-25T04:22:16;12.90;;;6.30;;
65597;SDS011;52267;51.984;20.956;2022-08-25T04:24:43;11.20;;;6.10;;
65597;SDS011;52267;51.984;20.956;2022-08-25T04:27:10;14.50;;;6.70;;
65597;SDS011;52267;51.984;20.956;2022-08-25T04:29:37;13.40;;;6.70;;
65597;SDS011;52267;51.984;20.956;2022-08-25T04:32:04;11.40;;;6.60;;
65597;SDS011;52267;51.984;20.956;2022-08-25T04:34:31;13.90;;;6.40;;
65597;SDS011;52267;51.984;20.956;2022-08-25T04:37:00;12.80;;;6.50;;
65597;SDS011;52267;51.984;20.956;2022-08-25T04:39:29;13.40;;;6.70;;
65597;SDS011;52267;51.984;20.956;2022-08-25T04:41:57;12.10;;;6.30;;
65597;SDS011;52267;51.984;20.956;2022-08-25T04:44:26;12.60;;;6.30;;
65597;SDS011;52267;51.984;20.956;2022-08-25T04:46:53;12.90;;;6.70;;
65597;SDS011;52267;51.984;20.956;2022-08-25T04:49:20;12.40;;;6.60;;
65597;SDS011;52267;51.984;20.956;2022-08-25T04:51:47;15.70;;;6.50;;
65597;SDS011;52267;51.984;20.956;2022-08-25T04:54:15;10.10;;;6.80;;
65597;SDS011;52267;51.984;20.956;2022-08-25T04:56:48;13.30;;;6.60;;
65597;SDS011;52267;51.984;20.956;2022-08-25T04:59:16;16.30;;;6.70;;
65597;SDS011;52267;51.984;20.956;2022-08-25T05:01:44;14.00;;;7.10;;
65597;SDS011;52267;51.984;20.956;2022-08-25T05:04:14;17.60;;;7.40;;
65597;SDS011;52267;51.984;20.956;2022-08-25T05:06:42;14.70;;;7.50;;
65597;SDS011;52267;51.984;20.956;2022-08-25T05:09:09;13.50;;;7.70;;
65597;SDS011;52267;51.984;20.956;2022-08-25T05:11:37;18.50;;;8.00;;
65597;SDS011;52267;51.984;20.956;2022-08-25T05:14:04;15.80;;;7.10;;
65597;SDS011;52267;51.984;20.956;2022-08-25T05:16:37;17.00;;;6.90;;
65597;SDS011;52267;51.984;20.956;2022-08-25T05:19:05;17.60;;;7.60;;
65597;SDS011;52267;51.984;20.956;2022-08-25T05:21:33;16.00;;;7.40;;
65597;SDS011;52267;51.984;20.956;2022-08-25T05:24:00;22.80;;;7.80;;
65597;SDS011;52267;51.984;20.956;2022-08-25T05:26:30;17.30;;;7.50;;
65597;SDS011;52267;51.984;20.956;2022-08-25T05:29:00;22.90;;;6.80;;
65597;SDS011;52267;51.984;20.956;2022-08-25T05:31:30;16.40;;;7.60;;
65597;SDS011;52267;51.984;20.956;2022-08-25T05:33:58;19.90;;;8.20;;
65597;SDS011;52267;51.984;20.956;2022-08-25T05:36:27;18.10;;;7.40;;
65597;SDS011;52267;51.984;20.956;2022-08-25T05:38:54;15.70;;;7.70;;
65597;SDS011;52267;51.984;20.956;2022-08-25T05:41:26;19.60;;;7.20;;
65597;SDS011;52267;51.984;20.956;2022-08-25T05:43:54;17.00;;;7.90;;
65597;SDS011;52267;51.984;20.956;2022-08-25T05:46:22;21.70;;;8.10;;
65597;SDS011;52267;51.984;20.956;2022-08-25T05:48:49;17.10;;;7.80;;
65597;SDS011;52267;51.984;20.956;2022-08-25T05:51:17;17.60;;;8.30;;
65597;SDS011;52267;51.984;20.956;2022-08-25T05:53:49;18.70;;;7.50;;
65597;SDS011;52267;51.984;20.956;2022-08-25T05:56:17;16.00;;;7.30;;
65597;SDS011;52267;51.984;20.956;2022-08-25T05:58:45;21.40;;;9.10;;
65597;SDS011;52267;51.984;20.956;2022-08-25T06:01:20;21.30;;;7.80;;
65597;SDS011;52267;51.984;20.956;2022-08-25T06:04:12;18.80;;;8.00;;
65597;SDS011;52267;51.984;20.956;2022-08-25T06:06:40;16.00;;;8.10;;
65597;SDS011;52267;51.984;20.956;2022-08-25T06:09:07;15.10;;;7.70;;
65597;SDS011;52267;51.984;20.956;2022-08-25T06:11:39;18.80;;;7.80;;
65597;SDS011;52267;51.984;20.956;2022-08-25T06:14:08;19.50;;;8.20;;
65597;SDS011;52267;51.984;20.956;2022-08-25T06:16:36;19.50;;;7.90;;
65597;SDS011;52267;51.984;20.956;2022-08-25T06:19:05;16.20;;;7.40;;
65597;SDS011;52267;51.984;20.956;2022-08-25T06:21:33;19.10;;;8.10;;
65597;SDS011;52267;51.984;20.956;2022-08-25T06:24:04;14.90;;;8.40;;
65597;SDS011;52267;51.984;20.956;2022-08-25T06:26:31;19.70;;;8.40;;
65597;SDS011;52267;51.984;20.956;2022-08-25T06:28:59;19.10;;;8.30;;
65597;SDS011;52267;51.984;20.956;2022-08-25T06:31:26;21.50;;;8.30;;
65597;SDS011;52267;51.984;20.956;2022-08-25T06:33:53;19.00;;;8.70;;
65597;SDS011;52267;51.984;20.956;2022-08-25T06:36:20;19.20;;;8.00;;
65597;SDS011;52267;51.984;20.956;2022-08-25T06:38:47;20.10;;;8.20;;
65597;SDS011;52267;51.984;20.956;2022-08-25T06:41:14;18.40;;;7.30;;
65597;SDS011;52267;51.984;20.956;2022-08-25T06:43:42;16.50;;;7.80;;
65597;SDS011;52267;51.984;20.956;2022-08-25T06:46:15;20.80;;;8.40;;
65597;SDS011;52267;51.984;20.956;2022-08-25T06:48:48;21.60;;;9.30;;
65597;SDS011;52267;51.984;20.956;2022-08-25T06:51:17;17.00;;;7.50;;
65597;SDS011;52267;51.984;20.956;2022-08-25T06:53:46;14.80;;;8.40;;
65597;SDS011;52267;51.984;20.956;2022-08-25T06:56:20;18.90;;;8.10;;
65597;SDS011;52267;51.984;20.956;2022-08-25T06:58:47;18.40;;;7.50;;
65597;SDS011;52267;51.984;20.956;2022-08-25T07:01:17;17.60;;;7.30;;
65597;SDS011;52267;51.984;20.956;2022-08-25T07:03:49;19.10;;;7.60;;
65597;SDS011;52267;51.984;20.956;2022-08-25T07:06:17;21.10;;;8.80;;
65597;SDS011;52267;51.984;20.956;2022-08-25T07:08:45;16.60;;;8.00;;
65597;SDS011;52267;51.984;20.956;2022-08-25T07:11:13;18.40;;;8.50;;
65597;SDS011;52267;51.984;20.956;2022-08-25T07:13:41;19.40;;;8.50;;
65597;SDS011;52267;51.984;20.956;2022-08-25T07:16:08;15.70;;;7.90;;
65597;SDS011;52267;51.984;20.956;2022-08-25T07:18:36;18.30;;;8.00;;
65597;SDS011;52267;51.984;20.956;2022-08-25T07:21:03;20.80;;;7.40;;
65597;SDS011;52267;51.984;20.956;2022-08-25T07:23:30;18.00;;;8.10;;
65597;SDS011;52267;51.984;20.956;2022-08-25T07:26:16;16.10;;;7.90;;
65597;SDS011;52267;51.984;20.956;2022-08-25T07:28:46;15.70;;;7.30;;
65597;SDS011;52267;51.984;20.956;2022-08-25T07:31:14;15.60;;;7.10;;
65597;SDS011;52267;51.984;20.956;2022-08-25T07:33:41;16.70;;;8.20;;
65597;SDS011;52267;51.984;20.956;2022-08-25T07:36:29;16.30;;;7.20;;
65597;SDS011;52267;51.984;20.956;2022-08-25T07:38:57;20.60;;;8.20;;
65597;SDS011;52267;51.984;20.956;2022-08-25T07:41:25;14.60;;;7.70;;
65597;SDS011;52267;51.984;20.956;2022-08-25T07:43:52;15.90;;;7.10;;
65597;SDS011;52267;51.984;20.956;2022-08-25T07:46:19;18.00;;;7.80;;
65597;SDS011;52267;51.984;20.956;2022-08-25T07:48:46;17.70;;;7.70;;
65597;SDS011;52267;51.984;20.956;2022-08-25T07:51:13;15.80;;;7.30;;
65597;SDS011;52267;51.984;20.956;2022-08-25T07:53:41;11.90;;;7.50;;
65597;SDS011;52267;51.984;20.956;2022-08-25T07:56:14;17.80;;;7.60;;
65597;SDS011;52267;51.984;20.956;2022-08-25T07:58:43;16.00;;;7.50;;
65597;SDS011;52267;51.984;20.956;2022-08-25T08:01:15;20.10;;;7.90;;
65597;SDS011;52267;51.984;20.956;2022-08-25T08:03:44;15.80;;;7.10;;
65597;SDS011;52267;51.984;20.956;2022-08-25T08:06:13;18.30;;;8.60;;
65597;SDS011;52267;51.984;20.956;2022-08-25T08:08:43;13.30;;;6.90;;
65597;SDS011;52267;51.984;20.956;2022-08-25T08:11:19;15.60;;;7.60;;
65597;SDS011;52267;51.984;20.956;2022-08-25T08:14:06;18.10;;;7.50;;
65597;SDS011;52267;51.984;20.956;2022-08-25T08:16:33;16.20;;;7.30;;
65597;SDS011;52267;51.984;20.956;2022-08-25T08:19:00;23.60;;;7.80;;
65597;SDS011;52267;51.984;20.956;2022-08-25T08:21:31;16.70;;;7.60;;
65597;SDS011;52267;51.984;20.956;2022-08-25T08:24:00;20.50;;;8.50;;
65597;SDS011;52267;51.984;20.956;2022-08-25T08:26:27;17.70;;;7.50;;
65597;SDS011;52267;51.984;20.956;2022-08-25T08:28:54;18.20;;;7.90;;
65597;SDS011;52267;51.984;20.956;2022-08-25T08:31:23;13.00;;;7.10;;
65597;SDS011;52267;51.984;20.956;2022-08-25T08:33:53;14.60;;;7.10;;
65597;SDS011;52267;51.984;20.956;2022-08-25T08:36:24;15.20;;;7.70;;
65597;SDS011;52267;51.984;20.956;2022-08-25T08:38:51;14.70;;;7.10;;
65597;SDS011;52267;51.984;20.956;2022-08-25T08:44:20;11.70;;;7.00;;
65597;SDS011;52267;51.984;20.956;2022-08-25T08:52:37;14.50;;;7.30;;
65597;SDS011;52267;51.984;20.956;2022-08-25T08:55:30;15.90;;;8.10;;
65597;SDS011;52267;51.984;20.956;2022-08-25T08:58:12;14.70;;;7.10;;
65597;SDS011;52267;51.984;20.956;2022-08-25T09:00:49;16.60;;;7.20;;
65597;SDS011;52267;51.984;20.956;2022-08-25T09:03:48;17.00;;;6.80;;
65597;SDS011;52267;51.984;20.956;2022-08-25T09:06:36;19.20;;;8.50;;
65597;SDS011;52267;51.984;20.956;2022-08-25T09:09:07;14.40;;;6.90;;
65597;SDS011;52267;51.984;20.956;2022-08-25T09:11:59;14.50;;;7.10;;
65597;SDS011;52267;51.984;20.956;2022-08-25T09:17:27;17.20;;;7.30;;
65597;SDS011;52267;51.984;20.956;2022-08-25T09:26:21;19.70;;;6.30;;
65597;SDS011;52267;51.984;20.956;2022-08-25T09:31:38;14.50;;;6.40;;
65597;SDS011;52267;51.984;20.956;2022-08-25T09:34:11;15.00;;;6.20;;
65597;SDS011;52267;51.984;20.956;2022-08-25T09:36:48;16.20;;;6.90;;
65597;SDS011;52267;51.984;20.956;2022-08-25T09:39:19;14.30;;;5.90;;
65597;SDS011;52267;51.984;20.956;2022-08-25T09:44:43;12.40;;;5.50;;
65597;SDS011;52267;51.984;20.956;2022-08-25T09:49:48;13.70;;;5.70;;
65597;SDS011;52267;51.984;20.956;2022-08-25T09:52:37;12.80;;;5.90;;
65597;SDS011;52267;51.984;20.956;2022-08-25T09:57:46;12.00;;;5.20;;
65597;SDS011;52267;51.984;20.956;2022-08-25T10:00:24;9.30;;;5.10;;
65597;SDS011;52267;51.984;20.956;2022-08-25T10:03:19;11.40;;;5.70;;
65597;SDS011;52267;51.984;20.956;2022-08-25T10:06:11;12.60;;;5.10;;
65597;SDS011;52267;51.984;20.956;2022-08-25T10:08:53;10.40;;;4.80;;
65597;SDS011;52267;51.984;20.956;2022-08-25T10:11:39;10.10;;;5.00;;
65597;SDS011;52267;51.984;20.956;2022-08-25T10:16:50;12.20;;;4.50;;
65597;SDS011;52267;51.984;20.956;2022-08-25T10:19:26;11.50;;;4.80;;
65597;SDS011;52267;51.984;20.956;2022-08-25T10:22:02;11.00;;;4.80;;
65597;SDS011;52267;51.984;20.956;2022-08-25T10:24:33;10.00;;;5.20;;
65597;SDS011;52267;51.984;20.956;2022-08-25T10:27:09;12.50;;;4.70;;
65597;SDS011;52267;51.984;20.956;2022-08-25T10:35:16;10.30;;;4.50;;
65597;SDS011;52267;51.984;20.956;2022-08-25T10:40:58;7.00;;;3.20;;
65597;SDS011;52267;51.984;20.956;2022-08-25T10:43:43;7.20;;;3.60;;
65597;SDS011;52267;51.984;20.956;2022-08-25T10:46:43;10.20;;;3.70;;
65597;SDS011;52267;51.984;20.956;2022-08-25T10:49:19;8.40;;;3.40;;
65597;SDS011;52267;51.984;20.956;2022-08-25T10:52:20;8.50;;;3.40;;
65597;SDS011;52267;51.984;20.956;2022-08-25T10:55:16;5.70;;;3.00;;
65597;SDS011;52267;51.984;20.956;2022-08-25T10:57:59;6.80;;;2.80;;
65597;SDS011;52267;51.984;20.956;2022-08-25T11:00:57;8.10;;;3.20;;
65597;SDS011;52267;51.984;20.956;2022-08-25T11:03:56;7.10;;;2.60;;
65597;SDS011;52267;51.984;20.956;2022-08-25T11:06:47;6.00;;;2.80;;
65597;SDS011;52267;51.984;20.956;2022-08-25T11:09:26;8.60;;;3.30;;
65597;SDS011;52267;51.984;20.956;2022-08-25T11:11:58;6.10;;;2.60;;
65597;SDS011;52267;51.984;20.956;2022-08-25T11:14:45;7.00;;;3.00;;
65597;SDS011;52267;51.984;20.956;2022-08-25T11:17:23;11.70;;;3.50;;
65597;SDS011;52267;51.984;20.956;2022-08-25T11:19:58;10.50;;;3.30;;
65597;SDS011;52267;51.984;20.956;2022-08-25T11:22:49;10.20;;;3.60;;
65597;SDS011;52267;51.984;20.956;2022-08-25T11:25:44;9.80;;;3.50;;
65597;SDS011;52267;51.984;20.956;2022-08-25T11:28:20;11.30;;;3.30;;
65597;SDS011;52267;51.984;20.956;2022-08-25T11:30:55;7.40;;;2.80;;
65597;SDS011;52267;51.984;20.956;2022-08-25T11:33:24;8.60;;;4.00;;
65597;SDS011;52267;51.984;20.956;2022-08-25T11:36:02;6.20;;;3.10;;
65597;SDS011;52267;51.984;20.956;2022-08-25T11:45:06;6.10;;;3.30;;
65597;SDS011;52267;51.984;20.956;2022-08-25T11:50:57;8.10;;;3.00;;
65597;SDS011;52267;51.984;20.956;2022-08-25T11:53:40;6.80;;;3.20;;
65597;SDS011;52267;51.984;20.956;2022-08-25T11:56:11;9.40;;;3.80;;
65597;SDS011;52267;51.984;20.956;2022-08-25T11:58:57;5.20;;;3.00;;
65597;SDS011;52267;51.984;20.956;2022-08-25T12:12:27;6.30;;;3.00;;
65597;SDS011;52267;51.984;20.956;2022-08-25T12:15:18;7.60;;;3.50;;
65597;SDS011;52267;51.984;20.956;2022-08-25T12:18:17;8.40;;;3.10;;
65597;SDS011;52267;51.984;20.956;2022-08-25T12:23:37;6.50;;;3.10;;
65597;SDS011;52267;51.984;20.956;2022-08-25T12:35:28;9.30;;;3.40;;
65597;SDS011;52267;51.984;20.956;2022-08-25T12:38:03;4.50;;;2.80;;
65597;SDS011;52267;51.984;20.956;2022-08-25T12:43:23;7.40;;;3.50;;
65597;SDS011;52267;51.984;20.956;2022-08-25T12:46:37;7.50;;;3.70;;
65597;SDS011;52267;51.984;20.956;2022-08-25T13:12:33;7.60;;;3.20;;
65597;SDS011;52267;51.984;20.956;2022-08-25T13:15:12;5.90;;;3.40;;
65597;SDS011;52267;51.984;20.956;2022-08-25T13:17:41;7.90;;;3.30;;
65597;SDS011;52267;51.984;20.956;2022-08-25T13:20:17;7.70;;;2.90;;
65597;SDS011;52267;51.984;20.956;2022-08-25T13:22:48;6.70;;;3.50;;
65597;SDS011;52267;51.984;20.956;2022-08-25T13:25:18;7.40;;;3.20;;
65597;SDS011;52267;51.984;20.956;2022-08-25T13:27:55;5.00;;;3.50;;
65597;SDS011;52267;51.984;20.956;2022-08-25T13:30:28;8.90;;;2.90;;
65597;SDS011;52267;51.984;20.956;2022-08-25T13:32:56;5.60;;;3.20;;
65597;SDS011;52267;51.984;20.956;2022-08-25T13:35:29;6.90;;;3.30;;
65597;SDS011;52267;51.984;20.956;2022-08-25T13:38:15;7.30;;;3.30;;
65597;SDS011;52267;51.984;20.956;2022-08-25T13:40:42;5.90;;;3.40;;
65597;SDS011;52267;51.984;20.956;2022-08-25T13:43:12;6.20;;;3.50;;
65597;SDS011;52267;51.984;20.956;2022-08-25T13:48:11;6.40;;;3.20;;
65597;SDS011;52267;51.984;20.956;2022-08-25T13:50:41;6.40;;;3.60;;
65597;SDS011;52267;51.984;20.956;2022-08-25T13:53:13;6.50;;;3.40;;
65597;SDS011;52267;51.984;20.956;2022-08-25T13:55:56;5.00;;;3.10;;
65597;SDS011;52267;51.984;20.956;2022-08-25T13:58:35;6.60;;;3.30;;
65597;SDS011;52267;51.984;20.956;2022-08-25T14:03:56;7.50;;;3.20;;
65597;SDS011;52267;51.984;20.956;2022-08-25T14:07:25;7.80;;;3.40;;
65597;SDS011;52267;51.984;20.956;2022-08-25T14:12:41;4.70;;;2.90;;
65597;SDS011;52267;51.984;20.956;2022-08-25T14:18:02;6.20;;;3.50;;
65597;SDS011;52267;51.984;20.956;2022-08-25T14:20:33;7.50;;;3.20;;
65597;SDS011;52267;51.984;20.956;2022-08-25T14:23:05;5.80;;;3.20;;
65597;SDS011;52267;51.984;20.956;2022-08-25T14:25:33;7.20;;;3.20;;
65597;SDS011;52267;51.984;20.956;2022-08-25T14:28:03;9.90;;;3.80;;
65597;SDS011;52267;51.984;20.956;2022-08-25T14:30:39;6.20;;;2.90;;
65597;SDS011;52267;51.984;20.956;2022-08-25T14:33:08;10.90;;;3.10;;
65597;SDS011;52267;51.984;20.956;2022-08-25T14:35:36;7.40;;;3.70;;
65597;SDS011;52267;51.984;20.956;2022-08-25T14:38:08;6.90;;;3.40;;
65597;SDS011;52267;51.984;20.956;2022-08-25T14:40:37;6.20;;;3.00;;
65597;SDS011;52267;51.984;20.956;2022-08-25T14:43:08;6.70;;;2.70;;
65597;SDS011;52267;51.984;20.956;2022-08-25T14:45:39;6.40;;;3.20;;
65597;SDS011;52267;51.984;20.956;2022-08-25T14:48:12;7.90;;;2.50;;
65597;SDS011;52267;51.984;20.956;2022-08-25T14:50:43;6.60;;;2.90;;
65597;SDS011;52267;51.984;20.956;2022-08-25T14:53:11;6.80;;;2.70;;
65597;SDS011;52267;51.984;20.956;2022-08-25T14:55:38;5.70;;;2.90;;
65597;SDS011;52267;51.984;20.956;2022-08-25T14:58:05;6.10;;;2.70;;
65597;SDS011;52267;51.984;20.956;2022-08-25T15:00:43;5.20;;;2.90;;
65597;SDS011;52267;51.984;20.956;2022-08-25T15:03:13;5.60;;;2.70;;
65597;SDS011;52267;51.984;20.956;2022-08-25T15:05:42;7.80;;;2.80;;
65597;SDS011;52267;51.984;20.956;2022-08-25T15:08:09;5.80;;;2.80;;
65597;SDS011;52267;51.984;20.956;2022-08-25T15:10:55;9.10;;;2.70;;
65597;SDS011;52267;51.984;20.956;2022-08-25T15:13:21;4.90;;;2.70;;
65597;SDS011;52267;51.984;20.956;2022-08-25T15:15:49;7.60;;;2.80;;
65597;SDS011;52267;51.984;20.956;2022-08-25T15:18:16;6.80;;;2.80;;
65597;SDS011;52267;51.984;20.956;2022-08-25T15:20:43;7.10;;;2.90;;
65597;SDS011;52267;51.984;20.956;2022-08-25T15:23:10;5.80;;;2.50;;
65597;SDS011;52267;51.984;20.956;2022-08-25T15:25:38;6.00;;;2.70;;
65597;SDS011;52267;51.984;20.956;2022-08-25T15:28:06;7.50;;;3.00;;
65597;SDS011;52267;51.984;20.956;2022-08-25T15:30:34;6.40;;;2.80;;
65597;SDS011;52267;51.984;20.956;2022-08-25T15:33:01;5.20;;;2.40;;
65597;SDS011;52267;51.984;20.956;2022-08-25T15:35:28;6.70;;;2.70;;
65597;SDS011;52267;51.984;20.956;2022-08-25T15:37:55;8.20;;;3.20;;
65597;SDS011;52267;51.984;20.956;2022-08-25T15:40:22;6.90;;;2.80;;
65597;SDS011;52267;51.984;20.956;2022-08-25T15:42:50;6.10;;;3.20;;
65597;SDS011;52267;51.984;20.956;2022-08-25T15:45:17;6.30;;;2.50;;
65597;SDS011;52267;51.984;20.956;2022-08-25T15:47:44;6.20;;;2.90;;
65597;SDS011;52267;51.984;20.956;2022-08-25T15:50:15;7.70;;;2.50;;
65597;SDS011;52267;51.984;20.956;2022-08-25T15:52:43;5.30;;;2.50;;
65597;SDS011;52267;51.984;20.956;2022-08-25T15:55:10;7.10;;;3.20;;
65597;SDS011;52267;51.984;20.956;2022-08-25T15:57:37;6.30;;;2.60;;
65597;SDS011;52267;51.984;20.956;2022-08-25T16:00:06;6.90;;;2.60;;
65597;SDS011;52267;51.984;20.956;2022-08-25T16:02:38;8.90;;;3.50;;
65597;SDS011;52267;51.984;20.956;2022-08-25T16:05:06;7.30;;;2.90;;
65597;SDS011;52267;51.984;20.956;2022-08-25T16:07:34;8.50;;;3.10;;
65597;SDS011;52267;51.984;20.956;2022-08-25T16:10:01;7.60;;;2.70;;
65597;SDS011;52267;51.984;20.956;2022-08-25T16:12:29;6.80;;;2.70;;
65597;SDS011;52267;51.984;20.956;2022-08-25T16:14:57;7.80;;;2.70;;
65597;SDS011;52267;51.984;20.956;2022-08-25T16:17:24;6.50;;;2.90;;
65597;SDS011;52267;51.984;20.956;2022-08-25T16:19:50;6.80;;;3.20;;
65597;SDS011;52267;51.984;20.956;2022-08-25T16:22:20;7.50;;;2.90;;
65597;SDS011;52267;51.984;20.956;2022-08-25T16:24:47;6.10;;;3.10;;
65597;SDS011;52267;51.984;20.956;2022-08-25T16:27:14;6.80;;;3.20;;
65597;SDS011;52267;51.984;20.956;2022-08-25T16:29:42;6.40;;;2.80;;
65597;SDS011;52267;51.984;20.956;2022-08-25T16:32:11;7.40;;;3.00;;
65597;SDS011;52267;51.984;20.956;2022-08-25T16:34:40;8.70;;;3.30;;
65597;SDS011;52267;51.984;20.956;2022-08-25T16:37:07;9.90;;;3.50;;
65597;SDS011;52267;51.984;20.956;2022-08-25T16:39:34;8.90;;;3.40;;
65597;SDS011;52267;51.984;20.956;2022-08-25T16:42:01;5.90;;;3.70;;
65597;SDS011;52267;51.984;20.956;2022-08-25T16:44:28;6.20;;;2.80;;
65597;SDS011;52267;51.984;20.956;2022-08-25T16:46:55;5.90;;;2.60;;
65597;SDS011;52267;51.984;20.956;2022-08-25T16:49:22;7.20;;;3.10;;
65597;SDS011;52267;51.984;20.956;2022-08-25T16:51:50;6.50;;;3.00;;
65597;SDS011;52267;51.984;20.956;2022-08-25T16:54:17;9.10;;;3.10;;
65597;SDS011;52267;51.984;20.956;2022-08-25T16:57:02;10.00;;;2.90;;
65597;SDS011;52267;51.984;20.956;2022-08-25T16:59:32;10.70;;;3.30;;